createdAt,value
2022-12-14T00:00:35.744Z,-4.07
2022-12-14T00:01:35.693Z,-4.07
2022-12-14T00:02:35.796Z,-4.07
2022-12-14T00:03:35.721Z,-4.07
2022-12-14T00:04:35.690Z,-4.04
2022-12-14T00:05:35.651Z,-4.06
2022-12-14T00:06:35.666Z,-4.03
2022-12-14T00:07:35.631Z,-4.06
2022-12-14T00:08:41.465Z,-4.06
2022-12-14T00:09:35.615Z,-4.04
2022-12-14T00:10:35.638Z,-4.03
2022-12-14T00:11:35.590Z,-4.01
2022-12-14T00:12:35.608Z,-3.99
2022-12-14T00:13:35.579Z,-4.00
2022-12-14T00:14:35.588Z,-3.97
2022-12-14T00:15:35.572Z,-3.97
2022-12-14T00:16:35.554Z,-3.96
2022-12-14T00:17:35.535Z,-3.97
2022-12-14T00:18:35.534Z,-4.00
2022-12-14T00:19:35.535Z,-4.03
2022-12-14T00:20:35.515Z,-4.01
2022-12-14T00:21:35.510Z,-4.04
2022-12-14T00:22:35.519Z,-4.04
2022-12-14T00:23:38.827Z,-4.01
2022-12-14T00:24:35.473Z,-4.01
2022-12-14T00:25:35.460Z,-4.00
2022-12-14T00:26:35.453Z,-4.01
2022-12-14T00:27:35.428Z,-4.00
2022-12-14T00:28:35.445Z,-3.99
2022-12-14T00:29:35.418Z,-4.01
2022-12-14T00:30:35.449Z,-3.99
2022-12-14T00:31:35.431Z,-4.00
2022-12-14T00:32:35.405Z,-3.99
2022-12-14T00:33:35.369Z,-3.97
2022-12-14T00:34:35.373Z,-3.97
2022-12-14T00:35:35.356Z,-3.97
2022-12-14T00:36:35.373Z,-3.99
2022-12-14T00:37:35.327Z,-3.97
2022-12-14T00:38:35.334Z,-3.99
2022-12-14T00:39:35.305Z,-3.97
2022-12-14T00:40:35.310Z,-4.00
2022-12-14T00:41:35.294Z,-4.00
2022-12-14T00:42:35.304Z,-3.96
2022-12-14T00:43:35.267Z,-3.94
2022-12-14T00:44:35.270Z,-3.94
2022-12-14T00:45:35.254Z,-3.97
2022-12-14T00:46:35.298Z,-3.97
2022-12-14T00:47:40.576Z,-3.99
2022-12-14T00:48:35.253Z,-3.97
2022-12-14T00:49:35.206Z,-4.00
2022-12-14T00:50:35.224Z,-4.01
2022-12-14T00:51:35.193Z,-4.03
2022-12-14T00:52:35.225Z,-4.01
2022-12-14T00:53:35.165Z,-3.99
2022-12-14T00:54:35.185Z,-4.00
2022-12-14T00:55:35.146Z,-3.99
2022-12-14T00:56:35.155Z,-4.00
2022-12-14T00:57:35.125Z,-4.00
2022-12-14T00:58:35.158Z,-4.00
2022-12-14T00:59:35.109Z,-4.01
2022-12-14T01:00:35.125Z,-4.00
2022-12-14T01:01:35.178Z,-4.00
2022-12-14T01:02:35.339Z,-3.99
2022-12-14T01:03:35.146Z,-3.99
2022-12-14T01:04:35.084Z,-4.00
2022-12-14T01:05:35.045Z,-3.99
2022-12-14T01:06:35.063Z,-4.00
2022-12-14T01:07:35.029Z,-4.01
2022-12-14T01:08:35.101Z,-4.01
2022-12-14T01:09:35.017Z,-4.03
2022-12-14T01:10:35.015Z,-4.03
2022-12-14T01:11:34.984Z,-4.00
2022-12-14T01:12:35.006Z,-4.00
2022-12-14T01:13:34.966Z,-4.01
2022-12-14T01:14:34.986Z,-4.01
2022-12-14T01:15:35.006Z,-4.01
2022-12-14T01:16:34.953Z,-4.03
2022-12-14T01:17:34.925Z,-4.01
2022-12-14T01:18:34.943Z,-4.00
2022-12-14T01:19:34.908Z,-4.01
2022-12-14T01:20:34.943Z,-4.00
2022-12-14T01:21:34.881Z,-4.00
2022-12-14T01:22:34.902Z,-3.99
2022-12-14T01:23:34.866Z,-3.99
2022-12-14T01:24:34.868Z,-3.97
2022-12-14T01:25:34.843Z,-3.99
2022-12-14T01:26:34.872Z,-4.01
2022-12-14T01:27:34.822Z,-4.00
2022-12-14T01:28:34.844Z,-4.01
2022-12-14T01:29:34.803Z,-4.00
2022-12-14T01:30:34.822Z,-4.00
2022-12-14T01:31:34.850Z,-4.00
2022-12-14T01:32:34.823Z,-4.00
2022-12-14T01:33:34.766Z,-3.99
2022-12-14T01:34:34.771Z,-3.99
2022-12-14T01:35:34.742Z,-3.99
2022-12-14T01:36:34.792Z,-4.00
2022-12-14T01:37:34.742Z,-4.00
2022-12-14T01:38:34.727Z,-4.01
2022-12-14T01:39:34.709Z,-4.00
2022-12-14T01:40:34.721Z,-4.00
2022-12-14T01:41:34.697Z,-4.00
2022-12-14T01:42:34.702Z,-4.00
2022-12-14T01:43:34.664Z,-3.99
2022-12-14T01:44:34.667Z,-3.97
2022-12-14T01:45:34.641Z,-3.99
2022-12-14T01:46:34.698Z,-3.97
2022-12-14T01:47:34.625Z,-3.99
2022-12-14T01:48:34.652Z,-4.00
2022-12-14T01:49:34.606Z,-4.00
2022-12-14T01:50:34.609Z,-4.00
2022-12-14T01:51:34.581Z,-4.01
2022-12-14T01:52:34.594Z,-4.01
2022-12-14T01:53:34.576Z,-4.01
2022-12-14T01:54:34.601Z,-4.01
2022-12-14T01:55:34.544Z,-4.01
2022-12-14T01:56:34.547Z,-4.00
2022-12-14T01:57:34.521Z,-4.00
2022-12-14T01:58:34.553Z,-3.99
2022-12-14T01:59:34.511Z,-4.00
2022-12-14T02:00:34.511Z,-4.00
2022-12-14T02:01:34.521Z,-4.00
2022-12-14T02:02:34.625Z,-3.96
2022-12-14T02:03:34.510Z,-3.96
2022-12-14T02:04:34.467Z,-3.96
2022-12-14T02:05:34.442Z,-3.96
2022-12-14T02:06:34.448Z,-3.94
2022-12-14T02:07:34.421Z,-3.94
2022-12-14T02:08:34.425Z,-3.94
2022-12-14T02:09:34.415Z,-3.94
2022-12-14T02:10:34.420Z,-3.94
2022-12-14T02:11:34.381Z,-3.93
2022-12-14T02:12:34.398Z,-3.93
2022-12-14T02:13:34.361Z,-3.91
2022-12-14T02:14:34.367Z,-3.91
2022-12-14T02:15:34.351Z,-3.88
2022-12-14T02:16:34.407Z,-3.85
2022-12-14T02:17:34.321Z,-3.82
2022-12-14T02:18:34.330Z,-3.82
2022-12-14T02:19:34.300Z,-3.81
2022-12-14T02:20:34.304Z,-3.79
2022-12-14T02:21:34.291Z,-3.78
2022-12-14T02:22:34.299Z,-3.78
2022-12-14T02:23:34.263Z,-3.76
2022-12-14T02:24:34.278Z,-3.76
2022-12-14T02:25:34.238Z,-3.76
2022-12-14T02:26:34.265Z,-3.72
2022-12-14T02:27:34.228Z,-3.72
2022-12-14T02:28:34.223Z,-3.75
2022-12-14T02:29:34.199Z,-3.76
2022-12-14T02:30:34.209Z,-3.71
2022-12-14T02:31:34.210Z,-3.71
2022-12-14T02:32:34.209Z,-3.69
2022-12-14T02:33:34.158Z,-3.64
2022-12-14T02:34:34.179Z,-3.69
2022-12-14T02:35:34.146Z,-3.67
2022-12-14T02:36:34.168Z,-3.69
2022-12-14T02:37:34.119Z,-3.71
2022-12-14T02:38:34.137Z,-3.71
2022-12-14T02:39:34.097Z,-3.76
2022-12-14T02:40:34.099Z,-3.75
2022-12-14T02:41:34.087Z,-3.76
2022-12-14T02:42:34.082Z,-3.78
2022-12-14T02:43:34.061Z,-3.78
2022-12-14T02:44:34.072Z,-3.79
2022-12-14T02:45:34.038Z,-3.76
2022-12-14T02:46:34.120Z,-3.75
2022-12-14T02:47:34.023Z,-3.72
2022-12-14T02:48:34.038Z,-3.71
2022-12-14T02:49:34.024Z,-3.71
2022-12-14T02:50:33.999Z,-3.67
2022-12-14T02:51:33.975Z,-3.69
2022-12-14T02:52:34.006Z,-3.69
2022-12-14T02:53:33.959Z,-3.71
2022-12-14T02:54:33.963Z,-3.71
2022-12-14T02:55:33.942Z,-3.71
2022-12-14T02:56:33.940Z,-3.71
2022-12-14T02:57:33.947Z,-3.71
2022-12-14T02:58:33.939Z,-3.71
2022-12-14T02:59:33.894Z,-3.71
2022-12-14T03:00:33.954Z,-3.72
2022-12-14T03:01:34.091Z,-3.71
2022-12-14T03:02:34.032Z,-3.67
2022-12-14T03:03:33.855Z,-3.67
2022-12-14T03:04:33.874Z,-3.66
2022-12-14T03:05:33.840Z,-3.67
2022-12-14T03:06:33.840Z,-3.71
2022-12-14T03:07:33.817Z,-3.71
2022-12-14T03:08:33.862Z,-3.72
2022-12-14T03:09:33.796Z,-3.72
2022-12-14T03:10:33.812Z,-3.76
2022-12-14T03:11:33.775Z,-3.76
2022-12-14T03:12:33.778Z,-3.76
2022-12-14T03:13:33.756Z,-3.76
2022-12-14T03:14:33.792Z,-3.75
2022-12-14T03:15:33.736Z,-3.75
2022-12-14T03:16:33.826Z,-3.72
2022-12-14T03:17:33.713Z,-3.72
2022-12-14T03:18:33.733Z,-3.72
2022-12-14T03:19:33.695Z,-3.71
2022-12-14T03:20:33.721Z,-3.71
2022-12-14T03:21:33.680Z,-3.66
2022-12-14T03:22:33.694Z,-3.64
2022-12-14T03:23:33.654Z,-3.64
2022-12-14T03:24:33.673Z,-3.64
2022-12-14T03:25:33.631Z,-3.64
2022-12-14T03:26:33.687Z,-3.64
2022-12-14T03:27:33.613Z,-3.66
2022-12-14T03:28:33.631Z,-3.64
2022-12-14T03:29:33.593Z,-3.66
2022-12-14T03:30:58.959Z,-3.64
2022-12-14T03:31:33.682Z,-3.63
2022-12-14T03:32:33.594Z,-3.64
2022-12-14T03:33:33.553Z,-3.64
2022-12-14T03:34:33.577Z,-3.64
2022-12-14T03:35:33.530Z,-3.66
2022-12-14T03:36:33.538Z,-3.66
2022-12-14T03:37:33.530Z,-3.66
2022-12-14T03:38:33.516Z,-3.66
2022-12-14T03:39:33.497Z,-3.67
2022-12-14T03:40:33.514Z,-3.67
2022-12-14T03:41:33.472Z,-3.69
2022-12-14T03:42:33.519Z,-3.67
2022-12-14T03:43:33.453Z,-3.69
2022-12-14T03:44:33.470Z,-3.69
2022-12-14T03:45:33.447Z,-3.71
2022-12-14T03:46:33.434Z,-3.69
2022-12-14T03:47:33.426Z,-3.71
2022-12-14T03:48:33.400Z,-3.75
2022-12-14T03:49:33.419Z,-3.75
2022-12-14T03:50:33.388Z,-3.72
2022-12-14T03:51:33.398Z,-3.78
2022-12-14T03:52:33.382Z,-3.78
2022-12-14T03:53:33.365Z,-3.76
2022-12-14T03:54:33.339Z,-3.79
2022-12-14T03:55:33.357Z,-3.78
2022-12-14T03:56:33.320Z,-3.81
2022-12-14T03:57:33.336Z,-3.79
2022-12-14T03:58:33.323Z,-3.81
2022-12-14T03:59:33.317Z,-3.78
2022-12-14T04:00:33.278Z,-3.79
2022-12-14T04:01:33.422Z,-3.78
2022-12-14T04:02:36.260Z,-3.79
2022-12-14T04:03:33.316Z,-3.76
2022-12-14T04:04:33.239Z,-3.78
2022-12-14T04:05:33.248Z,-3.79
2022-12-14T04:06:33.217Z,-3.81
2022-12-14T04:07:33.237Z,-3.82
2022-12-14T04:08:33.200Z,-3.82
2022-12-14T04:09:33.242Z,-3.82
2022-12-14T04:10:33.177Z,-3.85
2022-12-14T04:11:33.199Z,-3.86
2022-12-14T04:12:33.163Z,-3.88
2022-12-14T04:13:33.162Z,-3.90
2022-12-14T04:14:33.175Z,-3.88
2022-12-14T04:15:33.157Z,-3.91
2022-12-14T04:16:33.173Z,-3.93
2022-12-14T04:17:33.136Z,-3.93
2022-12-14T04:18:33.097Z,-3.93
2022-12-14T04:19:33.101Z,-3.96
2022-12-14T04:20:33.092Z,-3.94
2022-12-14T04:21:33.084Z,-3.96
2022-12-14T04:22:33.057Z,-3.97
2022-12-14T04:23:33.073Z,-3.99
2022-12-14T04:24:33.034Z,-4.01
2022-12-14T04:25:33.068Z,-4.01
2022-12-14T04:26:33.014Z,-4.04
2022-12-14T04:27:33.033Z,-4.04
2022-12-14T04:28:33.022Z,-4.06
2022-12-14T04:29:33.017Z,-4.07
2022-12-14T04:30:33.004Z,-4.10
2022-12-14T04:31:33.026Z,-4.12
2022-12-14T04:32:33.003Z,-4.12
2022-12-14T04:33:32.959Z,-4.11
2022-12-14T04:34:32.941Z,-4.12
2022-12-14T04:35:32.952Z,-4.12
2022-12-14T04:36:32.961Z,-4.14
2022-12-14T04:37:32.918Z,-4.14
2022-12-14T04:38:32.893Z,-4.17
2022-12-14T04:39:32.911Z,-4.17
2022-12-14T04:40:32.873Z,-4.15
2022-12-14T04:41:32.893Z,-4.17
2022-12-14T04:42:32.872Z,-4.17
2022-12-14T04:43:32.876Z,-4.15
2022-12-14T04:44:32.832Z,-4.15
2022-12-14T04:45:32.886Z,-4.18
2022-12-14T04:46:37.501Z,-4.20
2022-12-14T04:47:32.858Z,-4.18
2022-12-14T04:48:32.794Z,-4.18
2022-12-14T04:49:32.810Z,-4.20
2022-12-14T04:50:32.771Z,-4.20
2022-12-14T04:51:32.780Z,-4.21
2022-12-14T04:52:32.750Z,-4.21
2022-12-14T04:53:32.771Z,-4.20
2022-12-14T04:54:32.730Z,-4.20
2022-12-14T04:55:32.742Z,-4.22
2022-12-14T04:56:32.713Z,-4.22
2022-12-14T04:57:32.749Z,-4.21
2022-12-14T04:58:32.724Z,-4.21
2022-12-14T04:59:32.701Z,-4.18
2022-12-14T05:00:32.675Z,-4.18
2022-12-14T05:01:32.813Z,-4.21
2022-12-14T05:02:32.833Z,-4.20
2022-12-14T05:03:32.677Z,-4.21
2022-12-14T05:04:32.645Z,-4.21
2022-12-14T05:05:32.647Z,-4.22
2022-12-14T05:06:32.622Z,-4.24
2022-12-14T05:07:32.662Z,-4.24
2022-12-14T05:08:32.591Z,-4.24
2022-12-14T05:09:32.637Z,-4.28
2022-12-14T05:10:32.573Z,-4.24
2022-12-14T05:12:31.547Z,-4.21
2022-12-14T05:13:32.575Z,-4.21
2022-12-14T05:14:32.560Z,-4.21
2022-12-14T05:15:32.550Z,-4.25
2022-12-14T05:16:32.557Z,-4.21
2022-12-14T05:17:32.512Z,-4.20
2022-12-14T05:18:32.554Z,-4.21
2022-12-14T05:19:32.500Z,-4.20
2022-12-14T05:20:32.496Z,-4.20
2022-12-14T05:21:32.488Z,-4.18
2022-12-14T05:22:32.449Z,-4.15
2022-12-14T05:23:32.460Z,-4.17
2022-12-14T05:24:32.431Z,-4.15
2022-12-14T05:25:32.471Z,-4.17
2022-12-14T05:26:32.408Z,-4.17
2022-12-14T05:27:32.427Z,-4.17
2022-12-14T05:28:32.392Z,-4.15
2022-12-14T05:29:32.394Z,-4.15
2022-12-14T05:30:32.403Z,-4.12
2022-12-14T05:31:32.389Z,-4.17
2022-12-14T05:32:32.365Z,-4.15
2022-12-14T05:33:32.350Z,-4.15
2022-12-14T05:34:32.335Z,-4.15
2022-12-14T05:35:32.346Z,-4.14
2022-12-14T05:36:32.331Z,-4.14
2022-12-14T05:37:32.350Z,-4.14
2022-12-14T05:38:32.288Z,-4.15
2022-12-14T05:39:32.307Z,-4.14
2022-12-14T05:40:32.268Z,-4.12
2022-12-14T05:41:32.312Z,-4.11
2022-12-14T05:42:32.250Z,-4.11
2022-12-14T05:43:32.266Z,-4.07
2022-12-14T05:44:32.228Z,-4.06
2022-12-14T05:45:32.235Z,-4.11
2022-12-14T05:46:32.205Z,-4.07
2022-12-14T05:47:32.255Z,-4.07
2022-12-14T05:48:32.189Z,-4.10
2022-12-14T05:49:32.195Z,-4.10
2022-12-14T05:50:32.168Z,-4.10
2022-12-14T05:51:32.177Z,-4.11
2022-12-14T05:52:32.172Z,-4.10
2022-12-14T05:53:32.186Z,-4.11
2022-12-14T05:54:32.128Z,-4.12
2022-12-14T05:55:32.148Z,-4.14
2022-12-14T05:56:32.109Z,-4.14
2022-12-14T05:57:32.154Z,-4.15
2022-12-14T05:58:32.111Z,-4.14
2022-12-14T05:59:32.103Z,-4.14
2022-12-14T06:00:32.092Z,-4.12
2022-12-14T06:01:32.137Z,-4.12
2022-12-14T06:02:32.106Z,-4.11
2022-12-14T06:03:32.095Z,-4.11
2022-12-14T06:04:32.102Z,-4.10
2022-12-14T06:05:32.044Z,-4.07
2022-12-14T06:06:32.010Z,-4.07
2022-12-14T06:07:32.024Z,-4.06
2022-12-14T06:08:31.987Z,-4.04
2022-12-14T06:09:32.010Z,-4.01
2022-12-14T06:10:31.967Z,-3.96
2022-12-14T06:11:31.981Z,-3.96
2022-12-14T06:12:31.943Z,-3.94
2022-12-14T06:13:31.953Z,-3.94
2022-12-14T06:14:31.961Z,-3.94
2022-12-14T06:15:34.070Z,-3.91
2022-12-14T06:16:31.905Z,-3.91
2022-12-14T06:17:31.910Z,-3.90
2022-12-14T06:18:31.885Z,-3.90
2022-12-14T06:19:31.922Z,-3.88
2022-12-14T06:20:31.893Z,-3.90
2022-12-14T06:21:31.884Z,-3.90
2022-12-14T06:22:31.845Z,-3.86
2022-12-14T06:23:31.851Z,-3.86
2022-12-14T06:24:31.825Z,-3.85
2022-12-14T06:25:31.856Z,-3.83
2022-12-14T06:26:31.849Z,-3.85
2022-12-14T06:27:31.825Z,-3.85
2022-12-14T06:28:31.782Z,-3.83
2022-12-14T06:29:31.801Z,-3.83
2022-12-14T06:30:31.763Z,-3.82
2022-12-14T06:31:31.809Z,-3.79
2022-12-14T06:32:31.760Z,-3.81
2022-12-14T06:33:31.747Z,-3.79
2022-12-14T06:34:35.371Z,-3.79
2022-12-14T06:35:31.738Z,-3.78
2022-12-14T06:36:31.660Z,-3.75
2022-12-14T06:37:31.686Z,-3.72
2022-12-14T06:38:31.685Z,-3.69
2022-12-14T06:39:31.704Z,-3.67
2022-12-14T06:40:31.664Z,-3.66
2022-12-14T06:41:31.680Z,-3.63
2022-12-14T06:42:31.622Z,-3.62
2022-12-14T06:43:31.779Z,-3.62
2022-12-14T06:44:31.623Z,-3.62
2022-12-14T06:45:31.644Z,-3.59
2022-12-14T06:46:31.629Z,-3.57
2022-12-14T06:47:31.626Z,-3.54
2022-12-14T06:48:31.544Z,-3.53
2022-12-14T06:49:31.536Z,-3.52
2022-12-14T06:50:31.513Z,-3.53
2022-12-14T06:51:31.549Z,-3.52
2022-12-14T06:52:31.515Z,-3.54
2022-12-14T06:53:31.640Z,-3.54
2022-12-14T06:54:31.509Z,-3.54
2022-12-14T06:55:31.472Z,-3.53
2022-12-14T06:56:31.451Z,-3.53
2022-12-14T06:57:31.455Z,-3.54
2022-12-14T06:58:32.685Z,-3.53
2022-12-14T06:59:31.434Z,-3.53
2022-12-14T07:00:31.425Z,-3.53
2022-12-14T07:01:31.592Z,-3.53
2022-12-14T07:02:31.658Z,-3.52
2022-12-14T07:03:31.885Z,-3.49
2022-12-14T07:04:31.367Z,-3.45
2022-12-14T07:05:31.414Z,-3.45
2022-12-14T07:06:31.348Z,-3.45
2022-12-14T07:07:31.354Z,-3.46
2022-12-14T07:08:31.344Z,-3.45
2022-12-14T07:09:31.343Z,-3.45
2022-12-14T07:10:31.309Z,-3.43
2022-12-14T07:11:31.311Z,-3.42
2022-12-14T07:12:31.288Z,-3.43
2022-12-14T07:13:31.483Z,-3.43
2022-12-14T07:14:31.267Z,-3.42
2022-12-14T07:15:31.294Z,-3.42
2022-12-14T07:16:31.247Z,-3.42
2022-12-14T07:17:31.303Z,-3.41
2022-12-14T07:18:31.227Z,-3.39
2022-12-14T07:19:31.233Z,-3.39
2022-12-14T07:20:31.205Z,-3.38
2022-12-14T07:21:31.225Z,-3.35
2022-12-14T07:22:31.185Z,-3.35
2022-12-14T07:23:31.634Z,-3.30
2022-12-14T07:24:31.164Z,-3.27
2022-12-14T07:25:31.172Z,-3.25
2022-12-14T07:26:31.148Z,-3.27
2022-12-14T07:27:31.167Z,-3.25
2022-12-14T07:28:31.145Z,-3.24
2022-12-14T07:29:34.660Z,-3.21
2022-12-14T07:30:31.105Z,-3.20
2022-12-14T07:31:31.153Z,-3.17
2022-12-14T07:32:31.084Z,-3.14
2022-12-14T07:33:31.389Z,-3.10
2022-12-14T07:34:31.063Z,-3.09
2022-12-14T07:35:31.119Z,-3.07
2022-12-14T07:36:31.046Z,-3.09
2022-12-14T07:37:31.063Z,-3.06
2022-12-14T07:38:31.026Z,-3.06
2022-12-14T07:39:31.053Z,-3.06
2022-12-14T07:40:31.006Z,-3.06
2022-12-14T07:41:31.253Z,-3.06
2022-12-14T07:42:30.990Z,-3.03
2022-12-14T07:43:31.164Z,-3.03
2022-12-14T07:44:30.991Z,-3.03
2022-12-14T07:45:30.973Z,-3.03
2022-12-14T07:46:30.982Z,-3.00
2022-12-14T07:47:30.947Z,-2.99
2022-12-14T07:48:30.924Z,-3.00
2022-12-14T07:49:30.971Z,-2.99
2022-12-14T07:50:30.903Z,-3.00
2022-12-14T07:51:30.910Z,-3.00
2022-12-14T07:52:37.185Z,-3.00
2022-12-14T07:53:31.256Z,-2.99
2022-12-14T07:54:30.888Z,-2.99
2022-12-14T07:55:30.891Z,-3.00
2022-12-14T07:56:30.868Z,-2.97
2022-12-14T07:57:30.890Z,-2.96
2022-12-14T07:58:30.830Z,-2.92
2022-12-14T07:59:30.856Z,-2.86
2022-12-14T08:00:30.849Z,-2.82
2022-12-14T08:01:30.873Z,-2.79
2022-12-14T08:02:30.894Z,-2.78
2022-12-14T08:03:31.174Z,-2.77
2022-12-14T08:04:30.819Z,-2.78
2022-12-14T08:05:30.771Z,-2.78
2022-12-14T08:06:30.771Z,-2.78
2022-12-14T08:07:30.731Z,-2.79
2022-12-14T08:08:30.736Z,-2.79
2022-12-14T08:09:30.718Z,-2.82
2022-12-14T08:10:34.380Z,-2.82
2022-12-14T08:11:30.698Z,-2.82
2022-12-14T08:12:30.713Z,-2.82
2022-12-14T08:13:31.215Z,-2.79
2022-12-14T08:14:30.676Z,-2.77
2022-12-14T08:15:30.665Z,-2.73
2022-12-14T08:16:30.716Z,-2.68
2022-12-14T08:17:30.644Z,-2.64
2022-12-14T08:18:30.645Z,-2.61
2022-12-14T08:19:30.615Z,-2.61
2022-12-14T08:20:30.687Z,-2.60
2022-12-14T08:21:30.590Z,-2.58
2022-12-14T08:22:30.591Z,-2.58
2022-12-14T08:23:30.946Z,-2.58
2022-12-14T08:24:30.575Z,-2.60
2022-12-14T08:25:30.547Z,-2.56
2022-12-14T08:26:35.469Z,-2.58
2022-12-14T08:27:30.534Z,-2.60
2022-12-14T08:28:30.548Z,-2.60
2022-12-14T08:29:30.515Z,-2.60
2022-12-14T08:30:30.528Z,-2.61
2022-12-14T08:31:30.606Z,-2.60
2022-12-14T08:32:34.313Z,-2.60
2022-12-14T08:33:30.804Z,-2.56
2022-12-14T08:34:30.491Z,-2.53
2022-12-14T08:35:30.449Z,-2.52
2022-12-14T08:36:30.452Z,-2.52
2022-12-14T08:37:30.453Z,-2.52
2022-12-14T08:38:30.444Z,-2.48
2022-12-14T08:39:30.409Z,-2.46
2022-12-14T08:40:30.429Z,-2.43
2022-12-14T08:41:30.391Z,-2.37
2022-12-14T08:42:30.405Z,-2.35
2022-12-14T08:43:30.836Z,-2.35
2022-12-14T08:44:30.374Z,-2.34
2022-12-14T08:45:30.347Z,-2.32
2022-12-14T08:46:30.383Z,-2.32
2022-12-14T08:47:30.351Z,-2.32
2022-12-14T08:48:30.330Z,-2.32
2022-12-14T08:49:32.481Z,-2.29
2022-12-14T08:50:30.324Z,-2.24
2022-12-14T08:51:30.282Z,-2.21
2022-12-14T08:52:30.325Z,-2.20
2022-12-14T08:53:30.725Z,-2.21
2022-12-14T08:54:30.267Z,-2.20
2022-12-14T08:55:35.134Z,-2.20
2022-12-14T08:56:30.253Z,-2.20
2022-12-14T08:57:30.221Z,-2.18
2022-12-14T08:58:30.264Z,-2.12
2022-12-14T08:59:59.475Z,-2.06
2022-12-14T09:00:30.256Z,-2.00
2022-12-14T09:01:33.765Z,-1.98
2022-12-14T09:02:30.370Z,-1.94
2022-12-14T09:03:30.592Z,-1.97
2022-12-14T09:04:30.201Z,-2.00
2022-12-14T09:05:30.156Z,-2.02
2022-12-14T09:06:30.161Z,-2.00
2022-12-14T09:07:30.118Z,-2.02
2022-12-14T09:08:30.124Z,-2.05
2022-12-14T09:09:30.099Z,-2.06
2022-12-14T09:10:30.136Z,-2.05
2022-12-14T09:11:30.108Z,-2.06
2022-12-14T09:12:30.087Z,-2.06
2022-12-14T09:13:30.686Z,-2.06
2022-12-14T09:14:30.062Z,-2.08
2022-12-14T09:15:30.066Z,-2.08
2022-12-14T09:16:30.145Z,-2.06
2022-12-14T09:17:30.014Z,-2.03
2022-12-14T09:18:30.361Z,-2.03
2022-12-14T09:19:30.001Z,-2.09
2022-12-14T09:20:30.037Z,-2.10
2022-12-14T09:21:29.975Z,-2.13
2022-12-14T09:22:29.993Z,-2.10
2022-12-14T09:23:30.413Z,-2.06
2022-12-14T09:24:29.970Z,-2.02
2022-12-14T09:25:29.956Z,-1.98
2022-12-14T09:26:30.044Z,-1.98
2022-12-14T09:27:29.922Z,-1.97
2022-12-14T09:28:29.935Z,-1.97
2022-12-14T09:29:29.890Z,-1.97
2022-12-14T09:30:29.896Z,-1.95
2022-12-14T09:31:29.924Z,-1.98
2022-12-14T09:32:29.915Z,-1.98
2022-12-14T09:33:30.327Z,-2.02
2022-12-14T09:34:29.878Z,-2.05
2022-12-14T09:35:29.831Z,-2.05
2022-12-14T09:36:29.853Z,-1.98
2022-12-14T09:37:29.848Z,-1.97
2022-12-14T09:38:29.829Z,-1.94
2022-12-14T09:39:29.793Z,-1.87
2022-12-14T09:40:29.806Z,-1.87
2022-12-14T09:41:29.769Z,-1.85
2022-12-14T09:42:29.786Z,-1.84
2022-12-14T09:43:30.471Z,-1.80
2022-12-14T09:44:29.759Z,-1.79
2022-12-14T09:45:29.780Z,-1.82
2022-12-14T09:46:29.733Z,-1.79
2022-12-14T09:47:29.714Z,-1.77
2022-12-14T09:48:30.092Z,-1.77
2022-12-14T09:49:29.689Z,-1.76
2022-12-14T09:50:29.708Z,-1.76
2022-12-14T09:51:29.744Z,-1.77
2022-12-14T09:52:29.671Z,-1.79
2022-12-14T09:53:30.121Z,-1.77
2022-12-14T09:54:29.664Z,-1.79
2022-12-14T09:55:29.634Z,-1.79
2022-12-14T09:56:29.681Z,-1.77
2022-12-14T09:57:29.610Z,-1.79
2022-12-14T09:58:30.082Z,-1.79
2022-12-14T09:59:29.584Z,-1.84
2022-12-14T10:00:29.623Z,-1.85
2022-12-14T10:01:29.705Z,-1.90
2022-12-14T10:02:31.312Z,-1.94
2022-12-14T10:03:30.147Z,-1.97
2022-12-14T10:04:29.626Z,-1.95
2022-12-14T10:05:29.519Z,-1.97
2022-12-14T10:06:29.527Z,-1.98
2022-12-14T10:07:34.146Z,-1.98
2022-12-14T10:08:29.977Z,-2.00
2022-12-14T10:09:29.513Z,-1.98
2022-12-14T10:10:29.500Z,-2.00
2022-12-14T10:11:29.458Z,-2.00
2022-12-14T10:12:34.066Z,-2.03
2022-12-14T10:13:29.852Z,-2.03
2022-12-14T10:14:29.443Z,-2.03
2022-12-14T10:15:29.448Z,-2.06
2022-12-14T10:16:29.498Z,-2.05
2022-12-14T10:17:29.438Z,-2.03
2022-12-14T10:19:28.372Z,-2.02
2022-12-14T10:20:29.394Z,-2.05
2022-12-14T10:21:29.361Z,-2.05
2022-12-14T10:22:29.392Z,-2.06
2022-12-14T10:23:29.385Z,-2.08
2022-12-14T10:24:29.352Z,-2.12
2022-12-14T10:25:29.325Z,-2.20
2022-12-14T10:26:29.333Z,-2.29
2022-12-14T10:27:37.935Z,-2.35
2022-12-14T10:28:29.689Z,-2.45
2022-12-14T10:29:29.297Z,-2.46
2022-12-14T10:30:29.294Z,-2.48
2022-12-14T10:31:29.294Z,-2.55
2022-12-14T10:32:29.274Z,-2.60
2022-12-14T10:33:29.255Z,-2.63
2022-12-14T10:34:29.241Z,-2.61
2022-12-14T10:35:29.251Z,-2.60
2022-12-14T10:36:29.250Z,-2.60
2022-12-14T10:37:29.207Z,-2.60
2022-12-14T10:38:29.708Z,-2.55
2022-12-14T10:39:29.214Z,-2.53
2022-12-14T10:40:34.015Z,-2.52
2022-12-14T10:41:29.172Z,-2.46
2022-12-14T10:42:29.231Z,-2.37
2022-12-14T10:43:29.132Z,-2.32
2022-12-14T10:44:29.150Z,-2.23
2022-12-14T10:45:44.582Z,-2.16
2022-12-14T10:46:29.259Z,-2.12
2022-12-14T10:47:29.091Z,-2.09
2022-12-14T10:48:29.512Z,-2.10
2022-12-14T10:49:29.077Z,-2.06
2022-12-14T10:50:29.110Z,-2.03
2022-12-14T10:51:29.058Z,-2.02
2022-12-14T10:52:29.067Z,-1.98
2022-12-14T10:53:29.037Z,-1.95
2022-12-14T10:54:29.047Z,-1.97
2022-12-14T10:55:29.007Z,-1.94
2022-12-14T10:56:29.138Z,-1.92
2022-12-14T10:57:28.988Z,-1.92
2022-12-14T10:58:29.455Z,-1.94
2022-12-14T10:59:33.615Z,-1.94
2022-12-14T11:00:28.994Z,-1.91
2022-12-14T11:01:29.093Z,-1.88
2022-12-14T11:02:29.212Z,-1.85
2022-12-14T11:03:28.982Z,-1.84
2022-12-14T11:04:28.947Z,-1.79
2022-12-14T11:05:35.754Z,-1.72
2022-12-14T11:06:28.925Z,-1.69
2022-12-14T11:07:28.882Z,-1.62
2022-12-14T11:08:29.333Z,-1.58
2022-12-14T11:09:28.866Z,-1.52
2022-12-14T11:10:28.885Z,-1.41
2022-12-14T11:11:28.853Z,-1.43
2022-12-14T11:12:28.866Z,-1.62
2022-12-14T11:13:28.821Z,-1.66
2022-12-14T11:14:28.838Z,-1.67
2022-12-14T11:15:28.798Z,-1.64
2022-12-14T11:16:35.327Z,-1.58
2022-12-14T11:17:28.903Z,-1.54
2022-12-14T11:18:29.237Z,-1.51
2022-12-14T11:19:28.768Z,-1.46
2022-12-14T11:20:28.763Z,-1.45
2022-12-14T11:21:28.750Z,-1.45
2022-12-14T11:22:28.761Z,-1.46
2022-12-14T11:23:28.724Z,-1.46
2022-12-14T11:24:28.749Z,-1.49
2022-12-14T11:25:28.694Z,-1.51
2022-12-14T11:26:28.710Z,-1.59
2022-12-14T11:27:28.676Z,-1.66
2022-12-14T11:28:34.376Z,-1.67
2022-12-14T11:29:28.661Z,-1.70
2022-12-14T11:30:28.722Z,-1.73
2022-12-14T11:31:28.717Z,-1.79
2022-12-14T11:32:28.651Z,-1.84
2022-12-14T11:33:28.617Z,-1.85
2022-12-14T11:34:28.632Z,-1.90
2022-12-14T11:35:28.591Z,-1.90
2022-12-14T11:36:28.616Z,-1.87
2022-12-14T11:37:28.571Z,-1.85
2022-12-14T11:38:29.037Z,-1.84
2022-12-14T11:39:28.549Z,-1.79
2022-12-14T11:40:28.576Z,-1.79
2022-12-14T11:41:28.530Z,-1.79
2022-12-14T11:42:28.558Z,-1.82
2022-12-14T11:43:28.508Z,-1.82
2022-12-14T11:44:28.517Z,-1.82
2022-12-14T11:45:28.498Z,-1.76
2022-12-14T11:46:28.540Z,-1.73
2022-12-14T11:47:28.474Z,-1.72
2022-12-14T11:48:29.008Z,-1.73
2022-12-14T11:49:28.445Z,-1.72
2022-12-14T11:50:28.465Z,-1.70
2022-12-14T11:51:28.440Z,-1.67
2022-12-14T11:52:28.440Z,-1.64
2022-12-14T11:53:28.407Z,-1.62
2022-12-14T11:54:28.425Z,-1.61
2022-12-14T11:55:28.385Z,-1.64
2022-12-14T11:56:28.413Z,-1.64
2022-12-14T11:57:28.374Z,-1.59
2022-12-14T11:58:28.724Z,-1.61
2022-12-14T11:59:28.351Z,-1.58
2022-12-14T12:00:28.350Z,-1.58
2022-12-14T12:01:28.403Z,-1.54
2022-12-14T12:02:28.414Z,-1.48
2022-12-14T12:03:28.379Z,-1.46
2022-12-14T12:04:28.308Z,-1.43
2022-12-14T12:05:28.289Z,-1.38
2022-12-14T12:06:28.288Z,-1.41
2022-12-14T12:07:28.267Z,-1.41
2022-12-14T12:08:28.726Z,-1.43
2022-12-14T12:09:28.239Z,-1.45
2022-12-14T12:10:28.248Z,-1.41
2022-12-14T12:11:28.223Z,-1.41
2022-12-14T12:12:28.237Z,-1.37
2022-12-14T12:13:28.209Z,-1.49
2022-12-14T12:14:28.187Z,-1.52
2022-12-14T12:15:28.218Z,-1.46
2022-12-14T12:16:28.164Z,-1.43
2022-12-14T12:17:28.172Z,-1.38
2022-12-14T12:18:28.627Z,-1.38
2022-12-14T12:19:28.178Z,-1.35
2022-12-14T12:20:28.153Z,-1.35
2022-12-14T12:21:28.136Z,-1.34
2022-12-14T12:22:28.105Z,-1.31
2022-12-14T12:23:28.494Z,-1.27
2022-12-14T12:24:28.094Z,-1.27
2022-12-14T12:25:33.571Z,-1.28
2022-12-14T12:26:28.070Z,-1.31
2022-12-14T12:27:28.082Z,-1.34
2022-12-14T12:28:28.468Z,-1.37
2022-12-14T12:29:28.069Z,-1.38
2022-12-14T12:30:28.024Z,-1.37
2022-12-14T12:31:28.116Z,-1.37
2022-12-14T12:32:28.026Z,-1.38
2022-12-14T12:33:28.031Z,-1.40
2022-12-14T12:34:27.983Z,-1.40
2022-12-14T12:35:27.985Z,-1.40
2022-12-14T12:36:27.966Z,-1.48
2022-12-14T12:37:28.193Z,-1.59
2022-12-14T12:38:28.305Z,-1.70
2022-12-14T12:39:27.946Z,-1.80
2022-12-14T12:40:27.922Z,-1.80
2022-12-14T12:41:27.947Z,-1.79
2022-12-14T12:42:27.898Z,-1.76
2022-12-14T12:43:27.928Z,-1.74
2022-12-14T12:44:27.878Z,-1.69
2022-12-14T12:45:27.909Z,-1.66
2022-12-14T12:46:27.878Z,-1.59
2022-12-14T12:47:37.022Z,-1.54
2022-12-14T12:48:28.290Z,-1.49
2022-12-14T12:49:27.858Z,-1.45
2022-12-14T12:50:27.819Z,-1.34
2022-12-14T12:51:27.833Z,-1.34
2022-12-14T12:52:27.804Z,-1.34
2022-12-14T12:53:27.804Z,-1.33
2022-12-14T12:54:27.795Z,-1.38